Time;durP1;ratioP1;P1;durP2;ratioP2;P2;SDS_P1;SDS_P2;PMS_P1;PMS_P2;Temp;Humidity;BMP_temperature;BMP_pressure;BME280_temperature;BME280_humidity;BME280_pressure;Samples;Min_cycle;Max_cycle;Signal;HPM_P1;HPM_P2
2021/12/17 07:59:16;;;;;;;49.33;26.60;;;;;;;8.10;99.85;103851.44;5280031;28;20406;-73
2021/12/17 08:01:48;;;;;;;59.95;35.15;;;;;;;8.03;100.00;103848.63;5279443;28;20037;-71
2021/12/17 08:04:21;;;;;;;43.80;21.92;;;;;;;8.05;100.00;103848.41;5280567;28;20023;-73
2021/12/17 08:06:52;;;;;;;44.00;22.20;;;;;;;7.98;100.00;103850.28;5270483;28;20021;-75
2021/12/17 08:09:24;;;;;;;38.30;21.17;;;;;;;8.13;100.00;103848.28;5259134;28;20021;-74
2021/12/17 08:11:57;;;;;;;45.75;21.10;;;;;;;8.09;100.00;103858.03;5259526;28;20045;-74
2021/12/17 08:14:29;;;;;;;41.53;19.98;;;;;;;8.14;100.00;103851.91;5259674;28;20045;-73
2021/12/17 08:17:16;;;;;;;43.65;22.10;;;;;;;8.18;100.00;103850.44;5257735;28;20040;-73
2021/12/17 08:25:42;;;;;;;45.83;20.67;;;;;;;8.21;100.00;103873.03;5259530;28;20045;-74
2021/12/17 08:28:15;;;;;;;;;;;;;;;8.37;100.00;103868.25;5261143;28;20101;-71
2021/12/17 08:30:47;;;;;;;40.17;20.35;;;;;;;8.73;100.00;103868.09;5262278;28;19916;-68
2021/12/17 08:33:21;;;;;;;49.03;23.45;;;;;;;8.63;100.00;103881.44;5265419;28;20067;-69
2021/12/17 08:35:52;;;;;;;38.55;18.58;;;;;;;8.83;100.00;103884.34;5265374;28;20033;-68
2021/12/17 08:38:23;;;;;;;32.92;18.60;;;;;;;8.94;100.00;103880.97;5260796;28;20033;-69
2021/12/17 08:40:58;;;;;;;33.67;18.48;;;;;;;9.08;100.00;103879.16;5263945;28;20033;-69
2021/12/17 08:43:29;;;;;;;40.40;22.80;;;;;;;9.01;100.00;103881.88;5259281;28;20385;-69
2021/12/17 08:46:01;;;;;;;32.03;18.75;;;;;;;9.11;100.00;103885.13;5277684;28;20127;-68
2021/12/17 08:48:33;;;;;;;30.00;18.65;;;;;;;9.25;99.15;103888.78;5269790;28;20463;-69
2021/12/17 08:51:09;;;;;;;34.20;24.27;;;;;;;8.80;98.69;103884.75;5257940;28;20040;-70
2021/12/17 08:53:40;;;;;;;;;;;;;;;9.14;99.59;103876.38;5269597;28;20071;-67
2021/12/17 08:56:15;;;;;;;35.50;22.42;;;;;;;9.16;98.65;103875.34;5268204;28;19921;-68
2021/12/17 08:58:49;;;;;;;35.45;24.17;;;;;;;9.06;97.52;103872.97;5260655;28;20401;-68
2021/12/17 09:01:21;;;;;;;36.65;23.77;;;;;;;8.90;97.57;103875.00;5278348;28;20060;-68
2021/12/17 09:03:52;;;;;;;31.70;23.48;;;;;;;8.87;96.81;103869.00;5278488;28;20091;-67
2021/12/17 09:06:26;;;;;;;31.38;21.85;;;;;;;8.82;97.59;103877.06;5278235;28;20468;-68
2021/12/17 09:08:58;;;;;;;31.60;21.92;;;;;;;8.90;98.17;103879.69;5274126;28;20033;-67
2021/12/17 09:11:30;;;;;;;29.63;22.10;;;;;;;8.90;98.24;103882.47;5264764;28;20021;-68
2021/12/17 09:14:04;;;;;;;35.75;26.02;;;;;;;8.69;97.15;103878.72;5263460;28;20554;-68
2021/12/17 09:16:35;;;;;;;34.10;22.17;;;;;;;8.77;97.59;103885.13;5256149;28;20022;-68
2021/12/17 09:19:09;;;;;;;31.77;22.35;;;;;;;8.58;96.96;103884.81;5257827;28;20060;-68
2021/12/17 09:21:41;;;;;;;41.83;26.27;;;;;;;8.69;98.32;103892.56;5256707;28;20381;-68
2021/12/17 09:24:12;;;;;;;31.60;21.73;;;;;;;8.71;97.59;103904.25;5253989;28;20040;-67
2021/12/17 09:26:44;;;;;;;36.33;24.27;;;;;;;8.67;97.70;103905.75;5254531;28;20078;-67
2021/12/17 09:29:15;;;;;;;36.67;24.63;;;;;;;8.74;98.37;103913.22;5245141;28;20083;-68
2021/12/17 09:31:50;;;;;;;40.20;27.50;;;;;;;8.68;98.14;103909.34;5252334;28;20388;-68
2021/12/17 09:34:22;;;;;;;33.70;22.87;;;;;;;8.76;98.44;103911.97;5256291;28;20028;-68
2021/12/17 09:36:53;;;;;;;34.58;24.23;;;;;;;8.71;98.20;103915.31;5252951;28;20032;-69
2021/12/17 09:39:24;;;;;;;32.63;22.17;;;;;;;8.68;98.39;103920.41;5264420;28;20365;-69
2021/12/17 09:41:59;;;;;;;31.70;22.83;;;;;;;8.62;97.67;103924.84;5245991;28;20031;-68
2021/12/17 09:44:30;;;;;;;32.88;23.08;;;;;;;8.60;98.10;103920.59;5243315;28;20025;-68
2021/12/17 09:47:02;;;;;;;32.13;21.83;;;;;;;8.73;98.94;103928.13;5257415;28;20325;-69
2021/12/17 09:49:34;;;;;;;33.83;22.05;;;;;;;8.67;98.38;103932.56;5248445;28;20060;-69
2021/12/17 09:52:05;;;;;;;34.95;22.40;;;;;;;8.65;98.21;103929.97;5244742;28;20041;-68
2021/12/17 09:54:37;;;;;;;38.05;23.92;;;;;;;8.75;98.30;103931.56;5263389;28;20132;-68
2021/12/17 09:57:08;;;;;;;34.78;24.10;;;;;;;8.76;97.70;103938.78;5262045;28;20128;-67
2021/12/17 09:59:40;;;;;;;40.00;24.17;;;;;;;8.68;98.37;103937.88;5264000;28;20537;-67
2021/12/17 10:02:11;;;;;;;33.90;21.52;;;;;;;8.74;98.47;103933.44;5257022;28;20512;-67
2021/12/17 10:04:44;;;;;;;43.42;29.88;;;;;;;8.64;98.65;103933.81;5244105;28;20427;-68
2021/12/17 10:07:21;;;;;;;35.33;24.30;;;;;;;8.67;98.65;103936.16;5256373;28;20136;-68
2021/12/17 10:09:59;;;;;;;33.78;22.83;;;;;;;8.71;99.16;103936.63;5242129;28;20086;-66
2021/12/17 10:12:34;;;;;;;34.38;23.45;;;;;;;8.77;99.15;103937.72;5249722;28;20036;-69
2021/12/17 10:15:09;;;;;;;35.60;21.83;;;;;;;8.75;99.41;103945.38;5262988;28;20028;-69
2021/12/17 10:17:52;;;;;;;28.60;19.58;;;;;;;8.99;99.46;103944.88;5263195;28;20043;-69
2021/12/17 10:20:24;;;;;;;35.55;20.45;;;;;;;8.97;99.27;103935.06;5245884;28;20377;-69
2021/12/17 10:22:59;;;;;;;27.15;17.95;;;;;;;9.03;99.45;103940.66;5246883;28;20014;-68
2021/12/17 10:25:32;;;;;;;30.23;18.75;;;;;;;9.05;98.71;103938.56;5246573;28;20107;-68
2021/12/17 10:28:06;;;;;;;33.85;24.63;;;;;;;9.04;98.23;103947.06;5257972;28;20485;-67
2021/12/17 10:30:40;;;;;;;29.40;20.52;;;;;;;9.12;99.10;103944.97;5261847;28;20025;-68
2021/12/17 10:33:17;;;;;;;31.67;20.33;;;;;;;9.14;98.82;103944.78;5260159;28;20384;-68
2021/12/17 10:35:49;;;;;;;28.13;19.42;;;;;;;9.26;99.18;103942.28;5250120;28;20084;-69
2021/12/17 10:38:23;;;;;;;26.73;18.20;;;;;;;9.23;98.57;103943.56;5262389;28;20112;-68
2021/12/17 10:41:06;;;;;;;27.42;19.40;;;;;;;9.20;97.99;103940.31;5254416;28;20090;-68
2021/12/17 10:43:44;;;;;;;29.00;19.38;;;;;;;9.04;98.38;103939.59;5240635;28;20084;-68
2021/12/17 10:46:24;;;;;;;26.60;18.48;;;;;;;9.19;98.78;103942.25;5245805;28;20033;-68
2021/12/17 10:49:12;;;;;;;32.80;18.70;;;;;;;9.48;98.80;103938.31;5255450;28;20385;-67
2021/12/17 10:51:47;;;;;;;53.60;39.67;;;;;;;9.39;97.96;103942.34;5261959;28;20109;-70
2021/12/17 10:54:21;;;;;;;37.70;26.42;;;;;;;9.52;97.22;103950.69;5242695;28;20029;-70
2021/12/17 10:56:55;;;;;;;23.90;15.32;;;;;;;9.25;96.66;103948.88;5247432;28;20025;-68
2021/12/17 10:59:31;;;;;;;23.05;15.23;;;;;;;9.52;97.35;103950.69;5248913;28;20021;-67
2021/12/17 11:02:10;;;;;;;21.63;14.15;;;;;;;9.46;96.81;103951.53;5241977;28;20030;-69
2021/12/17 11:04:43;;;;;;;24.52;14.77;;;;;;;9.28;96.73;103948.44;5241641;28;20057;-69
2021/12/17 11:07:17;;;;;;;23.30;14.63;;;;;;;9.17;97.00;103944.34;5242224;28;20029;-68
2021/12/17 11:10:00;;;;;;;23.55;15.52;;;;;;;9.28;97.57;103946.56;5251705;28;20057;-68
2021/12/17 11:12:38;;;;;;;22.05;14.65;;;;;;;9.42;97.07;103943.84;5239685;28;20033;-68
2021/12/17 11:15:41;;;;;;;24.40;12.65;;;;;;;9.27;96.79;103941.22;5246892;28;20029;-68
2021/12/17 11:18:13;;;;;;;26.55;17.42;;;;;;;9.30;97.13;103943.56;5218172;28;20509;-68
2021/12/17 11:20:45;;;;;;;23.25;14.65;;;;;;;9.30;97.63;103940.78;5241635;28;20036;-68
2021/12/17 11:23:16;;;;;;;35.90;25.90;;;;;;;9.22;96.54;103938.22;5255014;28;20032;-67
2021/12/17 11:25:49;;;;;;;25.00;15.52;;;;;;;9.24;97.38;103941.63;5248026;28;20032;-66
2021/12/17 11:28:26;;;;;;;25.00;15.10;;;;;;;9.22;96.99;103938.22;5262213;28;20126;-67
2021/12/17 11:30:58;;;;;;;24.77;14.25;;;;;;;9.35;96.97;103924.41;5251622;28;20025;-68
2021/12/17 11:33:30;;;;;;;23.95;14.18;;;;;;;9.28;96.86;103926.28;5255303;28;20052;-69
2021/12/17 11:36:02;;;;;;;24.20;13.75;;;;;;;9.31;96.83;103921.22;5261360;28;20094;-68
2021/12/17 11:38:52;;;;;;;24.40;14.15;;;;;;;9.25;96.51;103915.63;5261980;28;20028;-68
2021/12/17 11:41:35;;;;;;;25.02;13.75;;;;;;;9.47;96.74;103919.16;5258777;28;20393;-69
2021/12/17 11:44:08;;;;;;;23.98;13.80;;;;;;;9.28;96.10;103917.97;5261934;28;20025;-68
2021/12/17 11:46:40;;;;;;;20.77;12.80;;;;;;;9.63;96.60;103901.28;5259712;28;20435;-69
2021/12/17 11:49:15;;;;;;;25.55;15.82;;;;;;;9.39;96.46;103911.88;5241721;28;20022;-70
2021/12/17 11:51:54;;;;;;;21.92;13.85;;;;;;;9.44;96.57;103898.25;5241069;28;20108;-70
2021/12/17 11:54:32;;;;;;;22.50;13.75;;;;;;;9.54;95.58;103904.25;5239865;28;20489;-70
2021/12/17 11:57:12;;;;;;;25.23;13.82;;;;;;;9.49;95.47;103901.25;5245306;28;20053;-68
2021/12/17 11:59:45;;;;;;;22.40;13.35;;;;;;;9.53;95.71;103902.53;5252376;28;20033;-67
2021/12/17 12:02:24;;;;;;;20.27;12.35;;;;;;;9.44;95.43;103900.16;5251278;28;20045;-67
2021/12/17 12:05:01;;;;;;;20.48;12.65;;;;;;;9.55;96.19;103902.31;5247800;28;20036;-67
2021/12/17 12:07:36;;;;;;;22.95;14.15;;;;;;;9.60;95.65;103893.41;5239829;28;20124;-67
2021/12/17 12:10:21;;;;;;;24.50;12.85;;;;;;;9.54;95.49;103897.88;5250285;28;20510;-67
2021/12/17 12:12:53;;;;;;;20.83;12.90;;;;;;;9.40;94.73;103896.09;5252053;28;20028;-69
2021/12/17 12:15:31;;;;;;;20.63;12.75;;;;;;;9.49;95.78;103909.56;5243794;28;20383;-66
2021/12/17 12:18:13;;;;;;;20.15;12.48;;;;;;;9.64;96.19;103908.53;5246676;28;20041;-68
2021/12/17 12:20:51;;;;;;;16.90;12.70;;;;;;;9.58;95.44;103915.75;5242067;28;20046;-69
2021/12/17 12:23:28;;;;;;;16.55;11.68;;;;;;;9.55;95.43;103919.81;5242197;28;20030;-68
2021/12/17 12:26:02;;;;;;;16.05;12.35;;;;;;;9.52;94.83;103911.06;5241391;28;20052;-67
2021/12/17 12:28:49;;;;;;;19.90;13.50;;;;;;;9.55;94.73;103925.34;5241895;28;20419;-68
2021/12/17 12:31:27;;;;;;;16.73;13.00;;;;;;;9.58;95.28;103916.59;5244366;28;20112;-67
2021/12/17 12:33:58;;;;;;;18.25;12.48;;;;;;;9.55;94.83;103908.72;5244224;28;20395;-67
2021/12/17 12:36:41;;;;;;;14.60;11.40;;;;;;;9.58;94.93;103902.75;5261062;28;20017;-68
2021/12/17 12:39:32;;;;;;;15.02;10.45;;;;;;;9.78;94.75;103899.19;5242712;28;20053;-69
2021/12/17 12:42:30;;;;;;;16.40;10.88;;;;;;;9.73;94.60;103901.75;5240982;28;20030;-67
2021/12/17 12:45:07;;;;;;;17.58;12.75;;;;;;;9.70;94.19;103896.63;5237700;28;20037;-68
2021/12/17 12:47:44;;;;;;;14.50;9.75;;;;;;;9.86;94.77;103893.44;5259177;28;20052;-68
2021/12/17 12:50:19;;;;;;;16.77;11.68;;;;;;;9.50;94.33;103886.31;5243696;28;20041;-68
2021/12/17 12:53:00;;;;;;;14.73;11.33;;;;;;;9.43;94.57;103893.75;5244511;28;20025;-67
2021/12/17 12:55:44;;;;;;;14.82;11.50;;;;;;;9.33;95.04;103902.47;5250700;28;20124;-68
2021/12/17 12:58:18;;;;;;;16.25;10.82;;;;;;;9.29;95.48;103894.78;5263503;28;20140;-67
2021/12/17 13:00:57;;;;;;;16.53;11.70;;;;;;;9.29;95.07;103883.72;5265131;28;20029;-67
2021/12/17 13:03:31;;;;;;;15.32;12.38;;;;;;;9.27;95.00;103888.59;5263118;28;20032;-68
2021/12/17 13:06:02;;;;;;;15.30;11.75;;;;;;;9.30;95.66;103890.94;5264427;28;20135;-67
2021/12/17 13:08:35;;;;;;;18.80;15.55;;;;;;;9.28;94.58;103891.16;5265309;28;20028;-67
2021/12/17 13:11:07;;;;;;;24.20;19.20;;;;;;;9.21;95.39;103889.44;5257945;28;20487;-68
2021/12/17 13:13:45;;;;;;;15.07;11.90;;;;;;;9.20;95.37;103896.00;5260546;28;20025;-68
2021/12/17 13:16:23;;;;;;;13.93;11.15;;;;;;;9.26;95.26;103898.81;5251472;28;20033;-68
2021/12/17 13:22:01;;;;;;;13.20;9.82;;;;;;;9.14;93.90;103887.47;5259368;28;20108;-68
2021/12/17 13:24:36;;;;;;;19.92;14.32;;;;;;;9.21;94.59;103894.97;5243909;28;20104;-68
2021/12/17 13:27:11;;;;;;;17.20;12.82;;;;;;;9.22;93.98;103896.66;5242881;28;20025;-67
2021/12/17 13:29:44;;;;;;;12.98;9.90;;;;;;;9.04;92.68;103905.53;5253029;28;20037;-68
2021/12/17 13:32:19;;;;;;;17.73;13.10;;;;;;;9.10;93.31;103891.72;5263624;28;20021;-67
2021/12/17 13:34:53;;;;;;;15.77;12.13;;;;;;;9.14;92.94;103889.38;5263496;28;20029;-68
2021/12/17 13:37:26;;;;;;;12.57;10.00;;;;;;;9.06;92.64;103893.19;5252233;28;20032;-68
2021/12/17 13:40:09;;;;;;;15.30;10.18;;;;;;;9.31;94.62;103887.13;5255198;28;20032;-66
2021/12/17 13:42:47;;;;;;;14.20;8.60;;;;;;;9.28;93.95;103888.41;5264464;28;20437;-68
2021/12/17 13:45:21;;;;;;;14.30;9.82;;;;;;;9.09;93.37;103890.00;5263379;28;20037;-66
2021/12/17 13:47:55;;;;;;;12.18;9.45;;;;;;;9.09;93.44;103883.63;5245000;28;20117;-65
2021/12/17 13:50:40;;;;;;;10.30;8.57;;;;;;;9.18;93.17;103882.38;5243150;28;20025;-66
2021/12/17 13:53:14;;;;;;;10.20;8.70;;;;;;;9.25;93.49;103882.41;5242973;28;20045;-65
2021/12/17 13:55:48;;;;;;;7.32;6.50;;;;;;;9.43;94.05;103885.44;5242677;28;20014;-68
2021/12/17 13:58:22;;;;;;;8.75;7.28;;;;;;;9.28;93.52;103893.06;5258534;28;20060;-68
2021/12/17 14:00:57;;;;;;;7.40;6.20;;;;;;;9.44;92.84;103892.72;5261938;28;20029;-65
2021/12/17 14:03:34;;;;;;;12.18;9.95;;;;;;;9.35;93.67;103886.47;5257114;28;20450;-65
2021/12/17 14:06:18;;;;;;;8.95;6.60;;;;;;;9.53;93.26;103890.59;5242973;28;20034;-66
2021/12/17 14:08:52;;;;;;;7.40;6.47;;;;;;;9.37;92.58;103886.28;5242224;28;20024;-65
2021/12/17 14:11:33;;;;;;;8.13;5.78;;;;;;;9.31;92.10;103898.22;5245686;28;20501;-66
2021/12/17 14:14:20;;;;;;;6.10;4.82;;;;;;;9.43;91.92;103895.69;5258597;28;20021;-65
2021/12/17 14:17:00;;;;;;;5.55;4.72;;;;;;;9.55;91.93;103892.09;5256619;28;20025;-66
2021/12/17 14:19:42;;;;;;;5.32;4.72;;;;;;;9.51;91.71;103893.59;5242515;28;20035;-66
2021/12/17 14:22:27;;;;;;;9.70;8.63;;;;;;;9.60;91.44;103897.00;5242092;28;20101;-66
2021/12/17 14:24:59;;;;;;;7.07;5.95;;;;;;;9.44;91.70;103895.47;5242539;28;20029;-67
2021/12/17 14:27:47;;;;;;;5.95;5.35;;;;;;;9.68;91.97;103894.03;5242418;28;20377;-67
2021/12/17 14:30:28;;;;;;;9.40;6.53;;;;;;;9.53;90.64;103902.53;5258118;28;20426;-70
2021/12/17 14:33:14;;;;;;;5.72;4.53;;;;;;;9.63;91.52;103890.19;5262857;28;20033;-67
2021/12/17 14:35:51;;;;;;;;;;;;;;;9.63;92.21;103901.28;5263082;28;20029;-69
2021/12/17 14:38:35;;;;;;;8.80;5.90;;;;;;;9.42;91.13;103903.13;5250263;28;19917;-68
2021/12/17 14:41:27;;;;;;;7.65;4.90;;;;;;;9.54;91.46;103898.72;5262681;28;20353;-66
2021/12/17 14:44:18;;;;;;;5.35;4.85;;;;;;;9.28;90.79;103893.06;5262078;28;20033;-67
2021/12/17 14:57:19;;;;;;;5.60;4.90;;;;;;;9.32;91.27;103881.38;5241495;28;20120;-67
2021/12/17 15:06:13;;;;;;;6.57;5.87;;;;;;;9.40;90.95;103887.78;5270688;28;20041;-66
2021/12/17 15:08:45;;;;;;;4.65;4.25;;;;;;;9.26;89.66;103878.59;5261620;28;20618;-66
2021/12/17 15:11:31;;;;;;;5.32;4.82;;;;;;;9.33;90.12;103887.75;5254662;28;20017;-67
2021/12/17 15:14:02;;;;;;;6.43;5.82;;;;;;;9.32;90.10;103889.66;5240862;28;20038;-68
2021/12/17 15:16:33;;;;;;;7.07;5.20;;;;;;;9.33;89.60;103887.75;5241672;28;20079;-67
2021/12/17 15:19:05;;;;;;;7.40;5.70;;;;;;;9.44;90.01;103887.16;5246334;28;20042;-67
2021/12/17 15:21:36;;;;;;;5.53;4.90;;;;;;;9.19;89.94;103886.00;5241178;28;20033;-68
2021/12/17 15:24:09;;;;;;;6.30;5.38;;;;;;;9.40;89.95;103885.03;5240991;28;20029;-67
2021/12/17 15:26:40;;;;;;;9.35;8.15;;;;;;;9.50;89.38;103889.09;5240245;28;20456;-68
2021/12/17 15:29:11;;;;;;;7.03;6.28;;;;;;;9.20;89.28;103894.09;5253445;28;20025;-69
2021/12/17 15:31:42;;;;;;;4.82;4.40;;;;;;;9.49;89.93;103892.94;5258877;28;20044;-66
2021/12/17 15:34:14;;;;;;;11.38;8.80;;;;;;;9.23;88.75;103887.28;5249976;28;20207;-68
2021/12/17 15:36:46;;;;;;;7.20;5.20;;;;;;;9.30;89.42;103882.63;5240843;28;20030;-68
2021/12/17 15:39:17;;;;;;;6.68;5.75;;;;;;;9.34;89.79;103881.16;5240436;28;20029;-67
2021/12/17 15:41:49;;;;;;;5.68;4.65;;;;;;;9.46;90.12;103885.06;5240920;28;20068;-67
2021/12/17 15:44:20;;;;;;;5.68;4.90;;;;;;;9.47;89.95;103885.91;5241325;28;20029;-67
2021/12/17 15:46:52;;;;;;;5.88;4.32;;;;;;;9.29;88.56;103883.72;5241686;28;20029;-66
2021/12/17 15:49:24;;;;;;;6.65;5.95;;;;;;;9.22;86.06;103883.66;5252062;28;20103;-68
2021/12/17 15:51:55;;;;;;;5.45;4.95;;;;;;;9.27;86.67;103881.13;5254392;28;20021;-67
2021/12/17 15:54:26;;;;;;;6.50;5.88;;;;;;;9.20;85.95;103884.94;5247337;28;20041;-67
2021/12/17 15:56:58;;;;;;;6.13;5.43;;;;;;;9.37;86.76;103880.75;5246738;28;20025;-68
2021/12/17 15:59:29;;;;;;;6.68;6.07;;;;;;;9.28;85.69;103890.28;5260603;28;20048;-67
2021/12/17 16:02:02;;;;;;;6.38;5.68;;;;;;;9.26;86.71;103882.19;5256265;28;20029;-68
2021/12/17 16:04:39;;;;;;;13.00;11.70;;;;;;;9.35;87.41;103896.72;5255172;28;20029;-68
2021/12/17 16:07:12;;;;;;;9.02;8.13;;;;;;;9.56;87.64;103891.06;5245560;28;20021;-66
2021/12/17 16:16:53;;;;;;;7.55;6.95;;;;;;;9.31;85.14;103887.97;5261073;28;20045;-67
2021/12/17 16:20:59;;;;;;;9.27;7.80;;;;;;;9.46;86.97;103885.06;5248963;28;20098;-65
2021/12/17 16:23:40;;;;;;;11.80;10.20;;;;;;;9.53;86.17;103885.06;5251481;28;20060;-66
2021/12/17 16:26:13;;;;;;;8.85;7.97;;;;;;;9.39;85.26;103884.16;5245459;28;20148;-65
2021/12/17 16:28:46;;;;;;;9.15;8.25;;;;;;;9.49;85.32;103889.31;5256545;28;20091;-66
2021/12/17 16:31:26;;;;;;;11.23;10.18;;;;;;;9.24;84.89;103881.56;5256790;28;20025;-67
2021/12/17 16:34:01;;;;;;;16.45;12.77;;;;;;;9.26;84.32;103878.59;5255147;28;20033;-68
2021/12/17 16:36:35;;;;;;;21.88;14.25;;;;;;;9.29;84.14;103889.25;5245260;28;20480;-67
2021/12/17 16:39:11;;;;;;;10.85;9.85;;;;;;;9.07;84.12;103888.50;5250412;28;20043;-67
2021/12/17 16:41:43;;;;;;;10.80;9.70;;;;;;;9.14;84.69;103886.63;5250483;28;20152;-66
2021/12/17 16:44:21;;;;;;;11.95;10.70;;;;;;;9.17;84.50;103891.75;5248227;28;20124;-66
2021/12/17 16:49:25;;;;;;;10.25;9.35;;;;;;;9.05;84.46;103894.25;5260954;28;20032;-67
2021/12/17 16:51:56;;;;;;;11.93;10.82;;;;;;;9.09;83.96;103901.06;5253866;28;20120;-68
2021/12/17 16:54:27;;;;;;;10.70;9.60;;;;;;;9.08;84.54;103896.59;5250779;28;20154;-68
2021/12/17 16:56:59;;;;;;;12.77;11.55;;;;;;;9.05;84.85;103901.69;5258842;28;20062;-68
2021/12/17 16:59:30;;;;;;;11.73;10.63;;;;;;;9.05;84.29;103899.78;5261435;28;20069;-68
2021/12/17 17:02:02;;;;;;;10.98;10.02;;;;;;;9.10;84.36;103891.72;5264212;28;20172;-69
2021/12/17 17:04:33;;;;;;;10.88;9.88;;;;;;;9.03;84.56;103896.38;5262172;28;20053;-68
2021/12/17 17:07:04;;;;;;;11.18;10.13;;;;;;;9.06;84.83;103895.09;5264986;28;20032;-67
2021/12/17 17:09:36;;;;;;;12.02;10.82;;;;;;;8.89;84.29;103900.97;5256346;28;20079;-68
2021/12/17 17:12:10;;;;;;;15.63;10.90;;;;;;;9.07;85.47;103903.19;5254319;28;20032;-66
2021/12/17 17:14:42;;;;;;;54.72;42.22;;;;;;;8.91;85.09;103903.53;5261271;28;20465;-67
2021/12/17 17:17:13;;;;;;;14.15;12.65;;;;;;;9.02;85.41;103904.88;5263227;28;20044;-68
2021/12/17 17:19:45;;;;;;;12.68;11.25;;;;;;;8.92;84.93;103910.78;5253578;28;20029;-68
2021/12/17 17:22:16;;;;;;;11.15;9.88;;;;;;;8.87;84.58;103903.09;5254565;28;20053;-68
2021/12/17 17:24:47;;;;;;;10.10;8.98;;;;;;;8.92;84.93;103894.16;5255513;28;20090;-68
2021/12/17 17:27:19;;;;;;;11.65;10.43;;;;;;;8.85;84.22;103905.22;5245950;28;20029;-68
2021/12/17 17:29:50;;;;;;;11.32;10.13;;;;;;;8.90;85.01;103905.47;5243759;28;20036;-67
